Time;durP1;ratioP1;P1;durP2;ratioP2;P2;SDS_P1;SDS_P2;PMS_P1;PMS_P2;Temp;Humidity;BMP_temperature;BMP_pressure;BME280_temperature;BME280_humidity;BME280_pressure;Samples;Min_cycle;Max_cycle;Signal;HPM_P1;HPM_P2
2022/03/11 00:02:21;;;;;;;77.55;38.25;;;;;;;4.30;81.09;100483.19;5063124;28;20032;-75
2022/03/11 00:04:47;;;;;;;80.32;37.80;;;;;;;4.28;80.19;100491.09;5060236;28;20032;-75
2022/03/11 00:07:12;;;;;;;77.07;39.03;;;;;;;4.24;79.94;100489.56;5059646;28;20033;-77
2022/03/11 00:09:38;;;;;;;72.82;35.80;;;;;;;4.22;79.19;100488.81;5060988;28;20060;-75
2022/03/11 00:12:06;;;;;;;76.43;38.05;;;;;;;4.22;79.13;100486.19;5055653;28;20033;-76
2022/03/11 00:14:32;;;;;;;69.53;36.10;;;;;;;4.24;78.57;100489.56;5053467;28;20045;-78
2022/03/11 00:16:57;;;;;;;70.43;36.00;;;;;;;4.13;78.92;100497.09;5053424;28;20025;-74
2022/03/11 00:19:24;;;;;;;73.97;35.80;;;;;;;4.00;79.95;100496.06;5048007;28;20044;-75
2022/03/11 00:21:50;;;;;;;73.18;37.17;;;;;;;3.96;80.60;100504.97;5052724;28;20063;-75
2022/03/11 00:24:15;;;;;;;67.72;35.28;;;;;;;3.92;80.21;100493.84;5054516;28;20529;-75
2022/03/11 00:26:41;;;;;;;69.53;34.35;;;;;;;3.91;80.39;100496.53;5058103;28;20041;-75
2022/03/11 00:29:06;;;;;;;69.03;35.45;;;;;;;3.90;80.80;100498.28;5056774;28;20033;-75
2022/03/11 00:31:32;;;;;;;74.57;36.15;;;;;;;3.84;81.19;100501.19;5061622;28;20449;-75
2022/03/11 00:33:59;;;;;;;65.63;34.45;;;;;;;3.83;81.33;100498.69;5060899;28;20033;-75
2022/03/11 00:36:25;;;;;;;62.67;33.38;;;;;;;3.82;81.77;100497.00;5064885;28;20029;-75
2022/03/11 00:38:50;;;;;;;68.97;35.97;;;;;;;3.72;81.90;100507.03;5073934;28;20040;-77
2022/03/11 00:41:16;;;;;;;68.75;35.05;;;;;;;3.67;82.22;100509.88;5060528;28;20065;-77
2022/03/11 00:43:42;;;;;;;74.97;35.05;;;;;;;3.64;82.48;100514.41;5056428;28;20033;-76
2022/03/11 00:46:08;;;;;;;70.25;36.38;;;;;;;3.49;82.36;100510.78;5054093;28;20385;-76
2022/03/11 00:48:35;;;;;;;73.55;35.22;;;;;;;3.37;82.72;100511.38;5052121;28;20029;-76
2022/03/11 00:51:01;;;;;;;69.93;35.40;;;;;;;3.28;83.31;100517.91;5052670;28;20539;-74
2022/03/11 00:53:27;;;;;;;67.95;34.78;;;;;;;3.26;83.80;100516.28;5049990;28;20040;-75
2022/03/11 00:55:54;;;;;;;69.95;35.53;;;;;;;3.30;84.49;100515.19;5049827;28;20021;-75
2022/03/11 00:58:19;;;;;;;70.75;34.75;;;;;;;3.24;85.86;100505.09;5048351;28;20045;-75
2022/03/11 01:00:45;;;;;;;69.97;34.10;;;;;;;3.14;86.45;100522.06;5052055;28;20036;-74
2022/03/11 01:03:10;;;;;;;61.33;32.58;;;;;;;3.16;86.68;100523.69;5051012;28;20112;-76
2022/03/11 01:05:36;;;;;;;65.72;32.95;;;;;;;3.13;88.72;100512.53;5050436;28;20044;-76
2022/03/11 01:08:03;;;;;;;63.80;32.22;;;;;;;3.04;90.34;100513.84;5050984;28;20048;-75
2022/03/11 01:10:28;;;;;;;65.78;32.50;;;;;;;3.00;91.52;100521.88;5048673;28;20048;-75
2022/03/11 01:12:54;;;;;;;65.88;33.45;;;;;;;2.92;91.39;100524.00;5048115;28;20029;-75
2022/03/11 01:15:19;;;;;;;62.35;32.80;;;;;;;2.86;90.71;100523.38;5051871;28;20115;-75
2022/03/11 01:17:45;;;;;;;65.18;33.78;;;;;;;2.85;90.00;100529.50;5052365;28;20397;-76
2022/03/11 01:20:11;;;;;;;69.90;33.60;;;;;;;2.75;89.11;100522.16;5052070;28;20040;-76
2022/03/11 01:22:37;;;;;;;68.82;33.42;;;;;;;2.70;89.12;100525.00;5051681;28;20032;-76
2022/03/11 01:25:04;;;;;;;67.25;34.28;;;;;;;2.61;89.16;100529.75;5050659;28;20037;-75
2022/03/11 01:27:29;;;;;;;61.58;33.45;;;;;;;2.54;89.34;100523.13;5051191;28;20041;-75
2022/03/11 01:29:55;;;;;;;64.13;33.17;;;;;;;2.56;88.96;100516.94;5051958;28;20121;-75
2022/03/11 01:32:20;;;;;;;66.90;33.40;;;;;;;2.57;89.00;100523.84;5051095;28;20033;-75
2022/03/11 01:34:46;;;;;;;62.75;34.25;;;;;;;2.55;89.26;100523.06;5050931;28;20071;-74
2022/03/11 01:37:11;;;;;;;70.15;34.92;;;;;;;2.50;90.42;100526.78;5051066;28;20453;-75
2022/03/11 01:39:37;;;;;;;63.13;31.42;;;;;;;2.45;91.01;100527.00;5051033;28;20496;-75
2022/03/11 01:42:03;;;;;;;64.55;32.92;;;;;;;2.42;91.08;100527.13;5050870;28;20394;-76
2022/03/11 01:44:28;;;;;;;63.53;33.38;;;;;;;2.40;91.56;100521.16;5051141;28;20026;-75
2022/03/11 01:46:54;;;;;;;62.55;32.28;;;;;;;2.44;91.53;100527.91;5047151;28;20469;-75
2022/03/11 01:49:20;;;;;;;68.70;34.38;;;;;;;2.47;91.67;100530.38;5050327;28;20033;-75
2022/03/11 01:51:46;;;;;;;65.35;34.05;;;;;;;2.51;91.31;100529.31;5050529;28;20037;-76
2022/03/11 01:54:12;;;;;;;64.68;33.22;;;;;;;2.55;90.62;100530.03;5050026;28;20048;-75
2022/03/11 01:56:38;;;;;;;66.53;32.45;;;;;;;2.51;88.85;100529.31;5050595;28;20033;-76
2022/03/11 01:59:06;;;;;;;65.63;34.55;;;;;;;2.47;88.07;100525.19;5048124;28;20106;-75
2022/03/11 02:01:32;;;;;;;66.38;33.17;;;;;;;2.41;88.05;100535.88;5048165;28;20048;-74
2022/03/11 02:03:57;;;;;;;66.45;32.17;;;;;;;2.36;87.96;100530.00;5048611;28;20422;-74
2022/03/11 02:06:24;;;;;;;66.03;31.77;;;;;;;2.40;87.38;100536.78;5050403;28;20104;-75
2022/03/11 02:08:50;;;;;;;66.45;33.72;;;;;;;2.25;87.46;100533.06;5050880;28;20037;-75
2022/03/11 02:11:16;;;;;;;64.10;34.00;;;;;;;2.20;87.80;100534.19;5050520;28;20385;-75
2022/03/11 02:13:51;;;;;;;67.10;34.63;;;;;;;2.09;88.40;100537.25;5049134;28;20112;-75
2022/03/11 02:16:31;;;;;;;68.20;33.90;;;;;;;1.99;88.67;100529.00;5050200;28;20093;-75
2022/03/11 02:18:57;;;;;;;73.77;36.43;;;;;;;1.97;88.70;100532.56;5042832;28;20090;-75
2022/03/11 02:21:26;;;;;;;66.55;33.53;;;;;;;1.94;89.05;100528.34;5050053;28;20282;-75
2022/03/11 02:23:57;;;;;;;64.57;32.35;;;;;;;1.84;90.09;100521.81;5049177;28;20060;-75
2022/03/11 02:26:27;;;;;;;65.93;32.50;;;;;;;1.82;90.65;100533.22;5049965;28;20104;-75
2022/03/11 02:28:54;;;;;;;65.30;33.17;;;;;;;1.86;90.41;100533.03;5050013;28;20029;-75
2022/03/11 02:31:21;;;;;;;64.07;34.25;;;;;;;1.89;90.47;100524.22;5050102;28;20052;-75
2022/03/11 02:33:47;;;;;;;61.40;32.60;;;;;;;1.95;89.90;100522.22;5050349;28;20024;-75
2022/03/11 02:36:13;;;;;;;69.05;33.00;;;;;;;2.02;90.28;100531.44;5049932;28;20393;-75
2022/03/11 02:38:38;;;;;;;66.90;32.80;;;;;;;2.03;90.75;100532.31;5049788;28;20033;-75
2022/03/11 02:41:05;;;;;;;60.75;30.55;;;;;;;1.99;91.72;100529.00;5049975;28;20116;-75
2022/03/11 02:43:30;;;;;;;67.53;33.53;;;;;;;2.00;91.49;100528.06;5049627;28;20028;-75
2022/03/11 02:45:56;;;;;;;65.85;32.22;;;;;;;2.00;91.05;100533.25;5049917;28;20603;-75
2022/03/11 02:48:21;;;;;;;64.07;32.78;;;;;;;1.94;91.40;100528.34;5049271;28;20464;-76
2022/03/11 02:50:47;;;;;;;63.20;32.25;;;;;;;1.94;92.06;100528.34;5048588;28;20041;-75
2022/03/11 02:53:13;;;;;;;67.00;33.28;;;;;;;1.91;92.04;100533.66;5047602;28;20040;-75
2022/03/11 02:55:39;;;;;;;63.10;32.33;;;;;;;1.95;92.54;100540.44;5049742;28;20098;-75
2022/03/11 02:58:05;;;;;;;66.53;33.28;;;;;;;2.01;92.40;100537.56;5050012;28;20314;-75
2022/03/11 03:00:32;;;;;;;65.95;32.97;;;;;;;2.02;92.58;100547.06;5048763;28;20051;-76
2022/03/11 03:02:57;;;;;;;62.22;32.58;;;;;;;1.98;91.38;100545.53;5049727;28;20025;-76
2022/03/11 03:05:23;;;;;;;70.38;34.70;;;;;;;2.00;91.15;100543.69;5049695;28;20049;-75
2022/03/11 03:07:48;;;;;;;68.10;32.85;;;;;;;1.93;90.61;100552.69;5050419;28;20088;-76
2022/03/11 03:10:14;;;;;;;63.67;32.33;;;;;;;1.80;90.48;100548.88;5049243;28;20515;-75
2022/03/11 03:12:41;;;;;;;62.97;32.83;;;;;;;1.76;90.81;100544.72;5048697;28;20021;-76
2022/03/11 03:15:09;;;;;;;63.00;31.30;;;;;;;1.75;90.42;100543.03;5049572;28;20084;-76
2022/03/11 03:17:35;;;;;;;65.05;33.00;;;;;;;1.69;90.86;100538.09;5049565;28;20116;-76
2022/03/11 03:20:01;;;;;;;63.25;31.90;;;;;;;1.73;90.21;100550.03;5049583;28;20505;-76
2022/03/11 03:22:27;;;;;;;67.05;32.83;;;;;;;1.71;90.53;100548.44;5049662;28;20033;-75
2022/03/11 03:24:53;;;;;;;70.00;32.10;;;;;;;1.70;90.14;100551.94;5050101;28;20108;-75
2022/03/11 03:27:19;;;;;;;63.20;31.42;;;;;;;1.67;90.55;100555.50;5049252;28;20057;-75
2022/03/11 03:29:44;;;;;;;60.25;32.38;;;;;;;1.72;90.19;100558.75;5049601;28;20456;-75
2022/03/11 03:32:10;;;;;;;62.90;32.28;;;;;;;1.75;89.80;100558.66;5048992;28;20338;-74
2022/03/11 03:34:37;;;;;;;64.70;32.70;;;;;;;1.74;89.57;100551.75;5049351;28;20036;-74
2022/03/11 03:37:07;;;;;;;64.80;32.17;;;;;;;1.68;89.64;100556.34;5049561;28;20107;-74
2022/03/11 03:39:33;;;;;;;65.75;32.10;;;;;;;1.57;91.01;100548.97;5048845;28;20835;-75
2022/03/11 03:41:58;;;;;;;64.47;31.88;;;;;;;1.53;91.58;100550.03;5049392;28;20454;-75
2022/03/11 03:44:24;;;;;;;63.95;31.67;;;;;;;1.52;92.01;100556.97;5048196;28;20067;-75
2022/03/11 03:46:49;;;;;;;63.17;31.95;;;;;;;1.51;91.46;100559.63;5048239;28;20037;-76
2022/03/11 03:49:15;;;;;;;61.75;32.15;;;;;;;1.55;91.92;100559.44;5047985;28;20049;-75
2022/03/11 03:51:41;;;;;;;64.95;35.13;;;;;;;1.57;91.65;100570.66;5048449;28;20111;-76
2022/03/11 03:54:11;;;;;;;64.45;31.77;;;;;;;1.66;91.14;100569.41;5049373;28;20049;-75
2022/03/11 03:56:41;;;;;;;61.47;32.53;;;;;;;1.72;91.19;100579.56;5049038;28;20025;-75
2022/03/11 03:59:09;;;;;;;65.00;33.38;;;;;;;1.76;91.36;100575.09;5049456;28;20043;-76
2022/03/11 04:01:36;;;;;;;66.63;33.38;;;;;;;1.81;91.00;100573.16;5049444;28;20496;-75
2022/03/11 04:04:03;;;;;;;62.13;32.28;;;;;;;1.71;91.93;100582.25;5049692;28;20028;-75
2022/03/11 04:06:32;;;;;;;66.53;33.83;;;;;;;1.68;91.96;100585.81;5053344;28;20043;-75
2022/03/11 04:08:59;;;;;;;63.70;32.60;;;;;;;1.70;92.37;100578.81;5057194;28;20396;-75
2022/03/11 04:11:26;;;;;;;67.43;32.10;;;;;;;1.74;92.15;100588.16;5064960;28;20101;-75
2022/03/11 04:13:52;;;;;;;64.38;32.67;;;;;;;1.78;92.25;100589.72;5062701;28;20037;-75
2022/03/11 04:16:18;;;;;;;64.15;33.00;;;;;;;1.80;92.24;100593.13;5055601;28;20481;-76
2022/03/11 04:18:45;;;;;;;65.22;34.13;;;;;;;1.86;91.87;100592.88;5055732;28;20029;-75
2022/03/11 04:21:14;;;;;;;64.90;32.85;;;;;;;1.89;91.47;100597.94;5053311;28;20128;-76
2022/03/11 04:23:40;;;;;;;63.80;32.92;;;;;;;1.88;91.56;100591.06;5053245;28;20104;-75
2022/03/11 04:26:06;;;;;;;63.38;32.58;;;;;;;1.86;91.84;100598.09;5053206;28;20082;-75
2022/03/11 04:28:32;;;;;;;64.95;32.53;;;;;;;1.85;91.91;100598.13;5052588;28;20029;-75
2022/03/11 04:30:58;;;;;;;62.75;32.97;;;;;;;1.86;91.74;100592.88;5053513;28;20361;-75
2022/03/11 04:33:24;;;;;;;61.63;33.92;;;;;;;1.91;92.02;100600.50;5053752;28;20032;-76
2022/03/11 04:35:50;;;;;;;61.70;33.00;;;;;;;1.95;91.77;100600.28;5056953;28;20040;-75
2022/03/11 04:38:15;;;;;;;64.45;33.25;;;;;;;2.00;92.35;100600.94;5055756;28;20032;-74
2022/03/11 04:40:41;;;;;;;63.08;33.05;;;;;;;2.10;92.40;100600.59;5059167;28;20096;-77
2022/03/11 04:43:07;;;;;;;65.63;33.28;;;;;;;2.13;92.19;100600.44;5059368;28;20078;-75
2022/03/11 04:45:32;;;;;;;67.57;34.35;;;;;;;2.16;92.03;100615.94;5054594;28;20033;-76
2022/03/11 04:47:58;;;;;;;64.22;32.63;;;;;;;2.15;92.60;100611.66;5051799;28;20053;-75
2022/03/11 04:50:25;;;;;;;66.35;33.97;;;;;;;2.15;92.57;100615.09;5052344;28;20048;-75
2022/03/11 04:52:51;;;;;;;62.25;32.85;;;;;;;2.15;92.73;100615.09;5052975;28;20033;-74
2022/03/11 04:55:17;;;;;;;66.55;34.53;;;;;;;2.06;93.03;100616.31;5050896;28;20493;-75
2022/03/11 04:57:44;;;;;;;66.18;34.33;;;;;;;1.94;93.22;100611.66;5052496;28;20064;-76
2022/03/11 05:00:11;;;;;;;72.00;33.72;;;;;;;1.80;93.49;100613.94;5051992;28;20120;-75
2022/03/11 05:02:38;;;;;;;68.03;34.13;;;;;;;1.70;93.91;100607.44;5051833;28;20033;-76
2022/03/11 05:05:08;;;;;;;71.47;35.00;;;;;;;1.65;94.51;100604.13;5052359;28;20048;-75
2022/03/11 05:07:34;;;;;;;66.07;34.72;;;;;;;1.63;94.44;100606.81;5051644;28;20098;-74
2022/03/11 05:10:00;;;;;;;64.75;33.03;;;;;;;1.64;94.63;100607.69;5027401;22;20059;-74
2022/03/11 05:12:25;;;;;;;66.55;33.20;;;;;;;1.65;95.39;100604.13;4983566;28;20026;-73
2022/03/11 05:14:51;;;;;;;64.45;32.47;;;;;;;1.62;95.09;100604.28;4980946;28;20474;-75
2022/03/11 05:17:17;;;;;;;66.60;33.03;;;;;;;1.63;95.15;100605.97;4982393;28;20046;-74
2022/03/11 05:19:45;;;;;;;74.50;35.65;;;;;;;1.66;96.21;100605.84;4983781;28;20454;-75
2022/03/11 05:22:11;;;;;;;73.60;38.05;;;;;;;1.74;97.71;100606.38;4981803;28;20035;-74
2022/03/11 05:24:38;;;;;;;81.80;38.38;;;;;;;1.83;98.58;100603.41;4978956;28;20106;-73
2022/03/11 05:27:04;;;;;;;78.57;39.08;;;;;;;1.94;98.42;100608.19;4982792;28;20030;-76
2022/03/11 05:29:31;;;;;;;62.90;33.10;;;;;;;2.01;97.11;100617.41;4979702;28;20169;-74
2022/03/11 05:31:57;;;;;;;72.22;36.72;;;;;;;2.03;96.89;100619.06;4983582;28;20374;-74
2022/03/11 05:34:23;;;;;;;77.22;38.45;;;;;;;2.14;97.54;100628.19;4979593;28;20030;-74
2022/03/11 05:36:49;;;;;;;80.28;39.38;;;;;;;2.22;97.81;100626.13;4982137;28;20031;-75
2022/03/11 05:39:15;;;;;;;72.88;35.90;;;;;;;2.29;97.36;100627.56;4987101;28;20030;-73
2022/03/11 05:41:40;;;;;;;75.00;38.42;;;;;;;2.34;98.13;100625.59;4981917;28;20378;-75
2022/03/11 05:44:06;;;;;;;74.82;36.60;;;;;;;2.38;97.60;100637.56;4980947;28;20049;-74
2022/03/11 05:46:32;;;;;;;79.57;38.85;;;;;;;2.40;97.53;100640.97;4982680;28;20030;-74
2022/03/11 05:48:57;;;;;;;79.50;38.53;;;;;;;2.45;99.49;100649.44;4980055;28;20121;-74
2022/03/11 05:51:23;;;;;;;82.50;42.25;;;;;;;2.47;100.00;100639.81;4982362;28;20045;-74
2022/03/11 05:53:48;;;;;;;71.72;37.58;;;;;;;2.45;99.87;100649.44;4980528;28;20037;-74
2022/03/11 05:56:14;;;;;;;71.25;36.38;;;;;;;2.40;99.65;100648.78;4981919;28;20352;-73
2022/03/11 05:58:40;;;;;;;73.00;36.95;;;;;;;2.39;98.97;100654.91;4981734;28;20038;-74
2022/03/11 06:01:06;;;;;;;67.53;35.83;;;;;;;2.31;98.43;100662.19;4980522;28;20121;-74
2022/03/11 06:03:31;;;;;;;69.07;38.30;;;;;;;2.23;98.92;100654.72;4982099;28;20041;-74
2022/03/11 06:05:57;;;;;;;68.28;36.60;;;;;;;2.18;99.21;100658.41;4978800;28;20064;-74
2022/03/11 06:08:24;;;;;;;69.57;34.45;;;;;;;2.18;99.43;100661.00;4981778;28;20030;-74
2022/03/11 06:10:50;;;;;;;68.38;35.53;;;;;;;2.21;98.77;100660.88;4987385;28;20138;-74
2022/03/11 06:13:16;;;;;;;71.68;37.15;;;;;;;2.23;99.56;100661.66;4981513;28;20038;-76
2022/03/11 06:15:42;;;;;;;73.43;38.03;;;;;;;2.31;100.00;100662.19;4981607;28;20093;-72
2022/03/11 06:18:08;;;;;;;82.13;41.97;;;;;;;2.41;100.00;100666.97;4980582;28;20062;-75
2022/03/11 06:20:35;;;;;;;79.65;42.67;;;;;;;2.54;100.00;100669.88;4981593;28;20110;-77
2022/03/11 06:23:00;;;;;;;80.22;41.85;;;;;;;2.62;100.00;100678.22;4977875;28;20038;-76
2022/03/11 06:25:26;;;;;;;77.20;39.78;;;;;;;2.67;100.00;100672.81;4982194;28;20092;-75
2022/03/11 06:27:52;;;;;;;76.78;39.03;;;;;;;2.69;100.00;100684.88;4981820;28;20026;-78
2022/03/11 06:30:17;;;;;;;77.57;40.08;;;;;;;2.74;100.00;100677.69;4979608;28;20482;-76
2022/03/11 06:32:48;;;;;;;82.18;41.50;;;;;;;2.79;100.00;100678.34;4981170;28;20039;-76
2022/03/11 06:35:15;;;;;;;79.47;42.25;;;;;;;2.84;100.00;100688.56;4980947;28;20030;-78
2022/03/11 06:37:42;;;;;;;79.22;41.20;;;;;;;2.85;100.00;100691.09;4980065;28;20038;-78
2022/03/11 06:40:09;;;;;;;77.93;38.47;;;;;;;2.85;100.00;100691.09;4637570;28;9999823;-78
2022/03/11 06:42:35;;;;;;;80.97;39.92;;;;;;;2.89;100.00;100697.88;4975637;28;20035;-77
2022/03/11 06:45:01;;;;;;;72.65;39.58;;;;;;;2.94;100.00;100699.47;4979736;28;20037;-79
2022/03/11 06:47:26;;;;;;;76.70;40.20;;;;;;;2.98;100.00;100698.41;4979504;28;20026;-77
2022/03/11 06:49:52;;;;;;;81.82;42.53;;;;;;;3.04;100.00;100695.53;4977280;28;20045;-74
2022/03/11 06:52:17;;;;;;;93.10;46.85;;;;;;;3.14;100.00;100702.03;4977440;28;20578;-77
2022/03/11 06:54:43;;;;;;;90.40;44.78;;;;;;;3.27;100.00;100711.00;4975633;28;20089;-77
2022/03/11 06:57:09;;;;;;;93.15;45.70;;;;;;;3.38;100.00;100711.34;4977992;28;20113;-75
2022/03/11 06:59:34;;;;;;;92.45;45.63;;;;;;;3.45;100.00;100718.00;4277180;28;10000760;-75
2022/03/11 07:02:00;;;;;;;87.10;44.95;;;;;;;3.53;100.00;100721.13;4981403;28;20109;-75
2022/03/11 07:04:27;;;;;;;87.70;44.70;;;;;;;3.59;100.00;100720.81;4979231;28;20510;-77
2022/03/11 07:06:53;;;;;;;85.45;44.45;;;;;;;3.64;100.00;100721.47;4981361;28;20457;-73
2022/03/11 07:09:18;;;;;;;82.65;43.88;;;;;;;3.74;100.00;100728.88;4994271;28;20398;-75
2022/03/11 07:11:46;;;;;;;83.45;42.28;;;;;;;3.84;100.00;100735.34;4979444;28;20492;-78
2022/03/11 07:14:12;;;;;;;77.60;40.33;;;;;;;3.97;100.00;100737.31;4979971;28;20042;-75
2022/03/11 07:16:37;;;;;;;74.63;40.72;;;;;;;4.08;100.00;100739.41;4995450;28;20069;-75
2022/03/11 07:19:03;;;;;;;73.53;40.60;;;;;;;4.18;100.00;100740.69;4978641;28;20046;-74
2022/03/11 07:21:29;;;;;;;82.15;42.17;;;;;;;4.27;100.00;100745.47;4981862;28;20053;-75
2022/03/11 07:23:56;;;;;;;80.25;42.90;;;;;;;4.34;100.00;100752.09;4977708;28;20027;-75
2022/03/11 07:26:22;;;;;;;74.72;40.35;;;;;;;4.48;100.00;100749.63;4980777;28;20038;-76
2022/03/11 07:28:48;;;;;;;76.32;40.13;;;;;;;4.61;100.00;100751.63;4979249;28;20031;-75
2022/03/11 07:31:13;;;;;;;76.53;40.30;;;;;;;4.70;100.00;100759.03;4979381;28;20108;-74
2022/03/11 07:33:39;;;;;;;78.22;40.50;;;;;;;4.77;100.00;100760.44;4979430;28;20108;-75
2022/03/11 07:36:05;;;;;;;70.47;39.90;;;;;;;4.85;100.00;100758.25;4978316;28;20085;-76
2022/03/11 07:38:31;;;;;;;73.50;38.60;;;;;;;4.90;100.00;100761.47;4995382;28;20460;-75
2022/03/11 07:40:59;;;;;;;73.40;38.72;;;;;;;4.97;100.00;100768.09;4984798;28;20041;-76
2022/03/11 07:43:26;;;;;;;70.28;38.45;;;;;;;5.01;100.00;100768.81;4977648;28;20110;-75
2022/03/11 07:45:52;;;;;;;70.63;39.92;;;;;;;5.05;100.00;100779.03;4980961;28;20030;-76
2022/03/11 07:48:18;;;;;;;68.45;38.20;;;;;;;5.11;100.00;100773.50;4979577;28;20129;-74
2022/03/11 07:50:44;;;;;;;74.15;39.10;;;;;;;5.17;100.00;100791.50;4983227;28;20521;-75
2022/03/11 07:53:10;;;;;;;70.97;38.05;;;;;;;5.21;100.00;100782.56;4983624;28;20046;-75
2022/03/11 07:55:36;;;;;;;66.47;35.90;;;;;;;5.25;100.00;100784.06;4981409;28;20387;-75
2022/03/11 07:58:02;;;;;;;66.55;36.22;;;;;;;5.32;100.00;100777.59;4984327;28;20060;-75
2022/03/11 08:00:27;;;;;;;66.65;36.50;;;;;;;5.39;100.00;100767.66;4980924;28;20042;-75
2022/03/11 08:02:53;;;;;;;67.35;36.33;;;;;;;5.45;100.00;100769.13;4984747;28;20058;-76
2022/03/11 08:05:18;;;;;;;62.10;35.30;;;;;;;5.50;100.00;100777.56;4982207;28;20038;-75
2022/03/11 08:07:48;;;;;;;65.97;35.22;;;;;;;5.50;100.00;100775.78;4982001;28;20039;-75
2022/03/11 08:10:15;;;;;;;67.70;36.37;;;;;;;5.56;100.00;100787.72;4983641;28;20042;-75
2022/03/11 08:12:41;;;;;;;64.32;34.05;;;;;;;5.61;100.00;100775.22;4983756;28;20282;-73
2022/03/11 08:15:08;;;;;;;62.33;34.75;;;;;;;5.69;100.00;100789.63;4984342;28;20035;-73
2022/03/11 08:17:33;;;;;;;61.72;35.53;;;;;;;5.75;100.00;100784.06;4984331;28;20114;-74
2022/03/11 08:20:00;;;;;;;64.97;34.92;;;;;;;5.77;100.00;100791.84;4981769;28;20049;-73
2022/03/11 08:22:26;;;;;;;63.08;34.05;;;;;;;5.81;100.00;100795.97;4982316;28;20029;-78
2022/03/11 08:24:52;;;;;;;60.75;33.15;;;;;;;5.85;100.00;100805.34;4985391;28;20026;-74
2022/03/11 08:27:17;;;;;;;59.63;33.40;;;;;;;5.85;100.00;100800.09;4983058;28;20367;-75
2022/03/11 08:29:43;;;;;;;57.40;33.65;;;;;;;5.91;100.00;100804.19;4983781;28;20046;-73
2022/03/11 08:32:09;;;;;;;54.85;33.30;;;;;;;5.91;100.00;100805.03;4988940;28;20126;-71
2022/03/11 08:34:34;;;;;;;54.08;32.75;;;;;;;5.95;100.00;100801.31;4981819;28;20022;-73
2022/03/11 08:37:00;;;;;;;53.97;32.47;;;;;;;5.95;100.00;100803.94;4980573;28;20128;-72
2022/03/11 08:39:26;;;;;;;56.70;31.85;;;;;;;5.95;100.00;100798.69;4985574;28;20053;-75
2022/03/11 08:41:51;;;;;;;57.47;32.47;;;;;;;5.94;100.00;100804.91;4981115;28;20030;-71
2022/03/11 08:44:17;;;;;;;60.25;32.80;;;;;;;5.95;100.00;100803.94;4979631;28;20398;-70
2022/03/11 08:46:42;;;;;;;55.25;30.98;;;;;;;6.00;100.00;100807.19;4981582;28;20023;-72
2022/03/11 08:49:08;;;;;;;54.20;31.77;;;;;;;6.00;100.00;100809.81;4983105;28;20128;-72
2022/03/11 08:51:34;;;;;;;53.17;30.55;;;;;;;6.03;100.00;100809.63;4979981;28;20042;-72
2022/03/11 08:53:59;;;;;;;57.20;30.15;;;;;;;6.06;100.00;100798.16;4980967;28;20038;-71
2022/03/11 08:56:26;;;;;;;58.35;30.23;;;;;;;6.09;100.00;100804.06;4980148;28;20038;-73
2022/03/11 08:58:51;;;;;;;53.97;30.60;;;;;;;6.20;100.00;100802.59;4963400;28;20114;-72
2022/03/11 09:01:17;;;;;;;52.78;29.02;;;;;;;6.32;100.00;100799.31;4981388;28;20150;-72
2022/03/11 09:03:43;;;;;;;51.60;29.92;;;;;;;6.45;100.00;100805.56;4982397;28;20030;-74
2022/03/11 09:06:09;;;;;;;49.00;29.83;;;;;;;6.56;99.88;100808.41;4982111;28;20467;-73
2022/03/11 09:08:34;;;;;;;48.95;28.70;;;;;;;6.64;99.71;100808.84;4982930;28;20037;-71
2022/03/11 09:10:59;;;;;;;48.13;28.87;;;;;;;6.73;99.05;100813.53;4293102;28;10000752;-71
2022/03/11 09:13:25;;;;;;;48.97;29.00;;;;;;;6.80;98.53;100814.88;4635873;28;10000217;-72
2022/03/11 09:15:51;;;;;;;55.80;29.05;;;;;;;6.86;97.74;100811.91;4983643;28;20455;-72
2022/03/11 09:18:16;;;;;;;53.25;31.70;;;;;;;6.87;97.74;100800.50;4980471;28;20041;-73
2022/03/11 09:20:42;;;;;;;51.30;29.70;;;;;;;6.95;97.71;100814.00;4981935;28;20026;-73
2022/03/11 09:23:08;;;;;;;48.05;28.35;;;;;;;7.01;96.80;100817.22;4982861;28;20548;-73
2022/03/11 09:25:34;;;;;;;47.10;26.55;;;;;;;6.96;96.31;100823.56;4981729;28;20084;-71
2022/03/11 09:28:00;;;;;;;42.30;28.30;;;;;;;6.95;96.75;100811.38;4981697;28;20033;-73
2022/03/11 09:30:26;;;;;;;43.92;27.20;;;;;;;7.03;96.61;100808.31;4980276;28;20139;-73
2022/03/11 09:32:51;;;;;;;50.08;27.27;;;;;;;7.13;96.36;100800.75;4984281;28;20363;-72
2022/03/11 09:35:17;;;;;;;44.90;26.83;;;;;;;7.19;95.33;100802.97;4980685;28;20061;-73
2022/03/11 09:37:42;;;;;;;43.65;25.63;;;;;;;7.21;94.52;100801.13;4980190;28;20042;-74
2022/03/11 09:40:10;;;;;;;45.80;26.75;;;;;;;7.28;94.76;100794.56;4986813;28;20487;-72
2022/03/11 09:42:36;;;;;;;42.20;25.50;;;;;;;7.32;93.97;100802.19;4981841;28;20034;-72
2022/03/11 09:45:03;;;;;;;48.60;27.52;;;;;;;7.39;94.09;100800.03;4982818;28;20030;-73
2022/03/11 09:47:28;;;;;;;42.78;25.75;;;;;;;7.49;93.29;100793.28;4979376;28;20368;-72
2022/03/11 09:49:54;;;;;;;46.42;25.70;;;;;;;7.49;92.70;100793.28;4983160;28;20041;-73
2022/03/11 09:52:21;;;;;;;44.05;26.17;;;;;;;7.51;92.42;100794.03;4979806;28;20120;-74
2022/03/11 09:54:47;;;;;;;42.38;25.08;;;;;;;7.53;92.32;100786.06;4980985;28;20124;-73
2022/03/11 09:57:22;;;;;;;45.10;24.75;;;;;;;7.49;92.45;100779.28;4980460;28;20390;-74
2022/03/11 09:59:48;;;;;;;38.50;24.45;;;;;;;7.51;92.98;100773.03;4981698;28;20542;-72
2022/03/11 10:02:15;;;;;;;40.78;25.00;;;;;;;7.58;92.38;100782.22;4980302;28;20039;-73
2022/03/11 10:04:46;;;;;;;40.75;24.98;;;;;;;7.70;91.58;100776.22;4980637;28;20041;-72
2022/03/11 10:07:26;;;;;;;38.92;23.90;;;;;;;7.77;90.99;100766.19;4980428;28;20066;-72
2022/03/11 10:09:53;;;;;;;38.47;24.27;;;;;;;7.84;90.35;100759.56;4986258;28;20106;-71
2022/03/11 10:12:29;;;;;;;37.97;23.77;;;;;;;8.00;89.67;100764.72;4983312;28;20050;-73
2022/03/11 10:15:03;;;;;;;35.58;22.65;;;;;;;8.14;88.72;100767.31;4981340;28;20026;-73
2022/03/11 10:17:40;;;;;;;36.70;24.05;;;;;;;8.27;88.40;100767.38;4979817;28;20534;-71
2022/03/11 10:20:09;;;;;;;38.67;23.88;;;;;;;8.41;87.89;100770.84;4978727;28;20493;-71
2022/03/11 10:22:34;;;;;;;39.55;22.45;;;;;;;8.49;86.36;100772.94;4979212;28;20053;-73
2022/03/11 10:25:06;;;;;;;35.88;22.20;;;;;;;8.43;84.94;100778.63;4981486;28;20026;-74
2022/03/11 10:27:31;;;;;;;36.10;22.65;;;;;;;8.50;84.55;100775.50;4978729;28;20026;-71
2022/03/11 10:30:02;;;;;;;37.15;22.80;;;;;;;8.61;84.01;100778.25;4982649;28;20033;-74
2022/03/11 10:32:28;;;;;;;37.53;22.17;;;;;;;8.78;84.02;100774.50;4978073;28;20062;-73
2022/03/11 10:34:53;;;;;;;33.38;21.70;;;;;;;8.86;83.55;100771.38;4983915;28;20493;-74
2022/03/11 10:37:19;;;;;;;38.10;21.58;;;;;;;9.04;83.08;100767.53;4979172;28;20120;-74
2022/03/11 10:39:48;;;;;;;33.25;21.73;;;;;;;9.08;81.22;100766.34;4986675;28;20062;-74
2022/03/11 10:42:13;;;;;;;37.08;21.10;;;;;;;9.11;81.32;100760.91;4980059;28;20498;-72
2022/03/11 10:44:40;;;;;;;33.88;21.38;;;;;;;9.18;81.27;100754.28;4980719;28;20113;-70
2022/03/11 10:47:20;;;;;;;32.45;21.58;;;;;;;9.30;79.99;100756.06;4980887;28;20415;-72
2022/03/11 10:49:58;;;;;;;34.08;20.80;;;;;;;9.47;79.71;100761.97;4975938;28;20049;-72
2022/03/11 10:52:46;;;;;;;30.73;20.08;;;;;;;9.50;78.53;100753.81;4978321;28;20118;-72
2022/03/11 10:55:32;;;;;;;35.20;20.80;;;;;;;9.52;77.69;100755.41;4978113;28;20133;-72
2022/03/11 10:57:59;;;;;;;33.97;20.88;;;;;;;9.50;77.67;100746.75;4977114;28;20038;-73
2022/03/11 11:00:26;;;;;;;30.15;19.58;;;;;;;9.55;77.86;100743.81;4978825;28;20038;-73
2022/03/11 11:02:55;;;;;;;37.33;21.92;;;;;;;9.66;76.48;100744.72;4980610;28;20030;-74
2022/03/11 11:05:22;;;;;;;33.83;20.47;;;;;;;9.75;76.18;100743.25;4978609;28;20039;-73
2022/03/11 11:07:49;;;;;;;25.15;19.13;;;;;;;9.79;75.32;100742.06;4976532;28;20105;-72
2022/03/11 11:10:17;;;;;;;28.38;19.55;;;;;;;9.78;74.43;100743.88;4981662;28;20522;-72
2022/03/11 11:12:43;;;;;;;29.88;19.33;;;;;;;9.72;73.82;100732.94;4979867;28;20116;-73